createdAt,value
2019-05-15T00:04:53.667Z,94.60
2019-05-15T00:09:58.654Z,94.60
2019-05-15T00:15:04.638Z,95.00
2019-05-15T00:20:10.172Z,95.20
2019-05-15T00:25:15.682Z,95.50
2019-05-15T00:30:20.509Z,95.50
2019-05-15T00:35:27.914Z,95.80
2019-05-15T00:40:31.720Z,96.10
2019-05-15T00:45:38.506Z,96.50
2019-05-15T00:50:42.919Z,97.10
2019-05-15T00:55:48.623Z,96.80
2019-05-15T01:00:53.853Z,97.70
2019-05-15T01:05:58.872Z,97.70
2019-05-15T01:11:03.995Z,97.90
2019-05-15T01:16:09.296Z,98.10
2019-05-15T01:21:14.644Z,98.20
2019-05-15T01:26:19.794Z,98.30
2019-05-15T01:31:24.553Z,98.60
2019-05-15T01:36:29.312Z,98.70
2019-05-15T01:41:34.141Z,98.70
2019-05-15T01:46:39.423Z,98.90
2019-05-15T01:51:44.952Z,99.10
2019-05-15T01:56:50.128Z,98.90
2019-05-15T02:01:55.463Z,99.40
2019-05-15T02:07:00.228Z,99.70
2019-05-15T02:12:05.040Z,99.60
2019-05-15T02:17:09.986Z,99.50
2019-05-15T02:22:14.736Z,99.90
2019-05-15T02:27:19.701Z,99.80
2019-05-15T02:32:24.459Z,99.60
2019-05-15T02:37:29.663Z,99.70
2019-05-15T02:42:34.916Z,99.70
2019-05-15T02:47:40.132Z,99.70
2019-05-15T02:52:45.748Z,99.70
2019-05-15T02:57:50.568Z,99.60
2019-05-15T03:02:55.394Z,99.70
2019-05-15T03:08:00.235Z,99.50
2019-05-15T03:13:05.068Z,99.70
2019-05-15T03:18:10.262Z,99.90
2019-05-15T03:23:15.328Z,99.90
2019-05-15T03:28:20.159Z,99.70
2019-05-15T03:33:27.681Z,99.60
2019-05-15T03:38:31.433Z,99.60
2019-05-15T03:43:39.222Z,99.80
2019-05-15T03:48:42.728Z,99.80
2019-05-15T03:53:49.709Z,99.70
2019-05-15T03:58:54.002Z,99.70
2019-05-15T04:03:59.843Z,99.70
2019-05-15T04:09:09.319Z,99.50
2019-05-15T04:14:12.959Z,99.20
2019-05-15T04:19:19.128Z,99.10
2019-05-15T04:24:25.597Z,99.40
2019-05-15T04:29:30.924Z,99.10
2019-05-15T04:34:35.601Z,99.40
2019-05-15T04:39:40.431Z,99.40
2019-05-15T04:44:45.256Z,99.10
2019-05-15T04:49:50.569Z,99.00
2019-05-15T04:54:55.551Z,98.70
2019-05-15T05:00:21.200Z,98.80
2019-05-15T05:05:26.018Z,98.50
2019-05-15T05:10:30.858Z,98.30
2019-05-15T05:15:35.699Z,98.40
2019-05-15T05:20:40.516Z,98.60
2019-05-15T05:25:45.350Z,98.50
2019-05-15T05:30:50.460Z,99.00
2019-05-15T05:35:55.280Z,98.80
2019-05-15T05:41:00.322Z,98.70
2019-05-15T05:46:05.143Z,98.40
2019-05-15T05:51:09.979Z,98.80
2019-05-15T05:56:14.801Z,98.80
2019-05-15T06:01:19.647Z,98.50
2019-05-15T06:06:24.495Z,98.70
2019-05-15T06:11:29.245Z,98.60
2019-05-15T06:16:34.068Z,98.50
2019-05-15T06:21:53.436Z,98.60
2019-05-15T06:26:45.356Z,98.30
2019-05-15T06:31:51.450Z,98.00
2019-05-15T06:36:56.279Z,98.10
2019-05-15T06:42:02.666Z,98.10
2019-05-15T06:47:08.504Z,97.70
2019-05-15T06:52:13.328Z,97.90
2019-05-15T06:57:18.519Z,97.60
2019-05-15T07:02:23.599Z,97.10
2019-05-15T07:07:28.813Z,97.30
2019-05-15T07:12:34.516Z,97.30
2019-05-15T07:17:39.547Z,96.80
2019-05-15T07:22:44.416Z,96.50
2019-05-15T07:27:49.249Z,96.70
2019-05-15T07:32:54.505Z,96.30
2019-05-15T07:37:59.328Z,96.00
2019-05-15T07:43:04.154Z,96.20
2019-05-15T07:48:09.269Z,95.80
2019-05-15T07:53:14.346Z,95.30
2019-05-15T07:58:21.392Z,95.30
2019-05-15T08:03:29.205Z,94.80
2019-05-15T08:08:33.515Z,94.70
2019-05-15T08:13:58.194Z,95.00
2019-05-15T08:19:03.479Z,94.70
2019-05-15T08:24:08.643Z,94.20
2019-05-15T08:29:13.752Z,94.20
2019-05-15T08:34:19.759Z,94.30
2019-05-15T08:39:28.336Z,94.00
2019-05-15T08:44:32.250Z,93.80
2019-05-15T08:49:40.912Z,93.50
2019-05-15T08:54:43.562Z,93.40
2019-05-15T08:59:48.851Z,93.50
2019-05-15T09:04:54.202Z,93.40
2019-05-15T09:09:59.047Z,93.00
2019-05-15T09:15:05.191Z,92.60
2019-05-15T09:20:10.819Z,92.70
2019-05-15T09:25:19.317Z,92.70
2019-05-15T09:30:23.785Z,92.30
2019-05-15T09:35:28.640Z,92.20
2019-05-15T09:40:45.330Z,91.90
2019-05-15T09:45:39.910Z,91.70
2019-05-15T09:50:44.737Z,91.70
2019-05-15T09:55:49.918Z,91.20
2019-05-15T10:00:55.329Z,91.50
2019-05-15T10:06:00.170Z,91.90
2019-05-15T10:11:05.008Z,91.60
2019-05-15T10:16:09.860Z,91.60
2019-05-15T10:21:14.831Z,91.40
2019-05-15T10:26:19.667Z,91.60
2019-05-15T10:31:28.318Z,91.20
2019-05-15T10:36:32.697Z,91.30
2019-05-15T10:41:38.860Z,91.50
2019-05-15T10:46:43.888Z,91.10
2019-05-15T10:51:48.720Z,91.10
2019-05-15T10:56:53.554Z,90.60
2019-05-15T11:01:59.121Z,90.20
2019-05-15T11:07:04.327Z,90.60
2019-05-15T11:12:12.339Z,90.40
2019-05-15T11:17:17.239Z,90.50
2019-05-15T11:22:23.545Z,90.30
2019-05-15T11:27:31.290Z,90.00
2019-05-15T11:32:38.806Z,89.20
2019-05-15T11:37:46.293Z,88.90
2019-05-15T11:42:49.392Z,87.80
2019-05-15T11:47:57.261Z,88.20
2019-05-15T11:53:04.320Z,88.00
2019-05-15T11:58:09.535Z,85.30
2019-05-15T12:03:14.702Z,85.10
2019-05-15T12:08:19.523Z,86.10
2019-05-15T12:13:24.404Z,86.40
2019-05-15T12:18:29.244Z,85.00
2019-05-15T12:23:34.085Z,84.20
2019-05-15T12:28:40.507Z,83.00
2019-05-15T12:33:45.508Z,81.80
2019-05-15T12:38:50.616Z,80.50
2019-05-15T13:04:21.271Z,79.70
2019-05-15T13:09:27.763Z,77.20
2019-05-15T13:14:32.748Z,76.50
2019-05-15T13:19:38.806Z,76.70
2019-05-15T13:24:43.927Z,77.90
2019-05-15T13:29:48.860Z,78.50
2019-05-15T13:34:53.983Z,78.50
2019-05-15T13:39:58.832Z,78.40
2019-05-15T13:45:05.019Z,79.00
2019-05-15T13:50:10.355Z,78.90
2019-05-15T13:55:15.179Z,79.90
2019-05-15T14:00:20.921Z,81.80
2019-05-15T14:05:25.766Z,83.20
2019-05-15T14:10:30.606Z,85.20
2019-05-15T14:15:38.034Z,84.90
2019-05-15T14:20:41.923Z,85.60
2019-05-15T14:25:48.219Z,86.00
2019-05-15T14:30:53.364Z,83.60
2019-05-15T14:35:58.399Z,84.60
2019-05-15T14:41:03.235Z,86.80
2019-05-15T14:46:08.281Z,88.40
2019-05-15T14:51:13.124Z,90.30
2019-05-15T14:56:18.554Z,91.40
2019-05-15T15:01:23.618Z,92.00
2019-05-15T15:06:28.441Z,93.30
2019-05-15T15:11:33.392Z,94.00
2019-05-15T15:16:38.645Z,94.70
2019-05-15T15:21:43.657Z,94.80
2019-05-15T15:26:49.353Z,95.50
2019-05-15T15:31:54.322Z,96.10
2019-05-15T15:36:59.224Z,97.00
2019-05-15T15:42:04.045Z,96.90
2019-05-15T15:47:10.627Z,97.80
2019-05-15T15:52:17.936Z,98.60
2019-05-15T15:57:22.021Z,98.00
2019-05-15T16:02:28.142Z,98.80
2019-05-15T16:07:33.239Z,99.00
2019-05-15T16:12:38.735Z,98.90
2019-05-15T16:17:44.019Z,99.40
2019-05-15T16:22:49.050Z,99.50
2019-05-15T16:27:54.157Z,99.60
2019-05-15T16:32:58.984Z,99.60
2019-05-15T16:38:03.824Z,99.90
2019-05-15T16:43:08.666Z,99.90
2019-05-15T16:48:13.516Z,99.90
2019-05-15T16:53:18.446Z,99.80
2019-05-15T16:58:24.234Z,99.90
2019-05-15T17:03:29.190Z,99.90
2019-05-15T17:08:34.021Z,99.90
2019-05-15T17:13:39.467Z,99.90
2019-05-15T17:18:44.688Z,99.90
2019-05-15T17:23:50.021Z,99.90
2019-05-15T17:28:58.186Z,99.90
2019-05-15T17:34:02.711Z,99.90
2019-05-15T17:39:08.856Z,99.90
2019-05-15T17:44:14.102Z,99.90
2019-05-15T17:49:19.189Z,99.90
2019-05-15T17:54:24.016Z,99.90
2019-05-15T17:59:28.845Z,99.90
2019-05-15T18:04:33.604Z,99.90
2019-05-15T18:09:50.347Z,99.90
2019-05-15T18:14:45.084Z,99.90
2019-05-15T18:19:49.908Z,99.90
2019-05-15T18:24:54.678Z,99.90
2019-05-15T18:29:59.497Z,99.90
2019-05-15T18:35:05.124Z,99.90
2019-05-15T18:40:10.486Z,99.90
2019-05-15T18:45:18.203Z,99.90
2019-05-15T18:50:22.831Z,99.90
2019-05-15T18:55:27.672Z,99.90
2019-05-15T19:00:32.497Z,99.90
2019-05-15T19:05:38.668Z,99.90
2019-05-15T19:10:47.762Z,99.90
2019-05-15T19:15:50.401Z,99.90
2019-05-15T19:20:58.583Z,99.90
2019-05-15T19:26:03.190Z,99.90
2019-05-15T19:31:08.918Z,99.90
2019-05-15T19:36:14.132Z,99.90
2019-05-15T19:41:18.968Z,99.90
2019-05-15T19:46:23.871Z,99.90
2019-05-15T19:51:29.092Z,99.90
2019-05-15T19:56:33.922Z,99.90
2019-05-15T20:01:41.605Z,99.90
2019-05-15T20:06:47.994Z,99.90
2019-05-15T20:11:52.693Z,99.90
2019-05-15T20:16:59.000Z,99.90
2019-05-15T20:22:04.185Z,99.90
2019-05-15T20:27:09.018Z,99.90
2019-05-15T20:32:13.862Z,99.90
2019-05-15T20:37:18.701Z,99.90
2019-05-15T20:42:23.452Z,99.90
2019-05-15T20:47:28.375Z,99.90
2019-05-15T20:52:33.201Z,99.90
2019-05-15T20:57:40.994Z,99.90
2019-05-15T21:02:48.382Z,99.90
2019-05-15T21:07:52.740Z,99.90
2019-05-15T21:12:59.442Z,99.90
2019-05-15T21:18:13.465Z,99.90
2019-05-15T21:23:10.599Z,99.90
2019-05-15T21:28:15.445Z,99.90
2019-05-15T21:33:20.248Z,99.90
2019-05-15T21:38:28.235Z,99.90
2019-05-15T21:43:32.258Z,99.90
2019-05-15T21:48:38.255Z,99.90
2019-05-15T21:53:43.375Z,99.90
2019-05-15T21:58:48.388Z,99.90
2019-05-15T22:03:54.730Z,99.90
2019-05-15T22:08:59.686Z,99.90
2019-05-15T22:14:04.561Z,99.90
2019-05-15T22:19:10.670Z,99.90
2019-05-15T22:24:17.707Z,99.90
2019-05-15T22:29:22.850Z,99.90
2019-05-15T22:34:28.510Z,99.90
2019-05-15T22:39:33.759Z,99.90
2019-05-15T22:44:38.638Z,99.90
2019-05-15T22:49:43.649Z,99.90
2019-05-15T22:54:48.455Z,99.90
2019-05-15T22:59:53.305Z,99.90
2019-05-15T23:04:57.988Z,99.90
2019-05-15T23:10:09.190Z,99.90
2019-05-15T23:15:14.110Z,99.90
2019-05-15T23:20:19.630Z,99.90
2019-05-15T23:25:24.462Z,99.90
2019-05-15T23:30:29.307Z,99.90
2019-05-15T23:35:38.066Z,99.90
2019-05-15T23:40:42.086Z,99.90
2019-05-15T23:45:48.334Z,99.90
2019-05-15T23:50:53.230Z,99.90
2019-05-15T23:55:58.740Z,99.90
